createdAt,value
2023-06-07T00:01:28.391Z,100119.14
2023-06-07T00:03:41.573Z,100118.02
2023-06-07T00:05:54.713Z,100115.27
2023-06-07T00:08:07.808Z,100110.71
2023-06-07T00:10:20.710Z,100105.11
2023-06-07T00:12:34.178Z,100105.12
2023-06-07T00:14:49.507Z,100099.39
2023-06-07T00:17:02.486Z,100100.83
2023-06-07T00:19:15.560Z,100094.56
2023-06-07T00:21:29.555Z,100090.23
2023-06-07T00:23:42.354Z,100090.17
2023-06-07T00:25:55.581Z,100088.55
2023-06-07T00:28:08.684Z,100084.63
2023-06-07T00:30:23.163Z,100089.04
2023-06-07T00:32:35.765Z,100087.73
2023-06-07T00:34:50.532Z,100083.69
2023-06-07T00:37:02.993Z,100087.83
2023-06-07T00:39:15.614Z,100081.27
2023-06-07T00:41:28.889Z,100078.66
2023-06-07T00:43:41.896Z,100080.20
2023-06-07T00:45:54.344Z,100075.55
2023-06-07T00:48:07.995Z,100072.77
2023-06-07T00:50:21.764Z,100069.66
2023-06-07T00:52:34.662Z,100068.52
2023-06-07T00:54:47.882Z,100064.93
2023-06-07T00:57:00.748Z,100066.72
2023-06-07T00:59:14.406Z,100063.79
2023-06-07T01:01:29.694Z,100067.38
2023-06-07T01:03:43.632Z,100062.69
2023-06-07T01:05:57.146Z,100063.09
2023-06-07T01:08:09.999Z,100060.48
2023-06-07T01:10:23.557Z,100056.39
2023-06-07T01:12:38.920Z,100057.44
2023-06-07T01:14:52.791Z,100055.11
2023-06-07T01:17:06.302Z,100053.13
2023-06-07T01:19:25.349Z,100050.65
2023-06-07T01:21:41.268Z,100056.14
2023-06-07T01:23:54.191Z,100056.88
2023-06-07T01:26:07.873Z,100058.30
2023-06-07T01:28:21.416Z,100056.17
2023-06-07T01:30:35.755Z,100054.48
2023-06-07T01:32:50.470Z,100054.22
2023-06-07T01:35:04.023Z,100053.30
2023-06-07T01:37:17.156Z,100054.11
2023-06-07T01:39:32.806Z,100054.26
2023-06-07T01:41:46.611Z,100047.18
2023-06-07T01:44:03.449Z,100046.97
2023-06-07T01:46:17.043Z,100046.00
2023-06-07T01:48:30.287Z,100050.23
2023-06-07T01:50:42.894Z,100049.79
2023-06-07T01:52:55.835Z,100055.11
2023-06-07T01:55:09.926Z,100056.02
2023-06-07T01:57:31.079Z,100051.86
2023-06-07T01:59:58.191Z,100056.88
2023-06-07T02:02:17.754Z,100055.80
2023-06-07T02:04:35.286Z,100060.85
2023-06-07T02:06:53.002Z,100061.56
2023-06-07T02:09:11.349Z,100057.83
2023-06-07T02:11:28.098Z,100061.71
2023-06-07T02:13:46.372Z,100063.36
2023-06-07T02:15:59.281Z,100064.13
2023-06-07T02:18:13.905Z,100063.65
2023-06-07T02:20:29.385Z,100070.01
2023-06-07T02:22:41.993Z,100066.86
2023-06-07T02:24:54.771Z,100063.05
2023-06-07T02:27:08.615Z,100061.45
2023-06-07T02:29:21.314Z,100058.37
2023-06-07T02:31:34.714Z,100059.60
2023-06-07T02:33:48.002Z,100059.61
2023-06-07T02:36:01.237Z,100058.83
2023-06-07T02:38:13.987Z,100061.44
2023-06-07T02:40:26.880Z,100061.23
2023-06-07T02:42:40.011Z,100062.15
2023-06-07T02:44:53.324Z,100064.86
2023-06-07T02:47:05.920Z,100063.91
2023-06-07T02:49:18.841Z,100067.40
2023-06-07T02:51:31.985Z,100066.39
2023-06-07T02:53:44.628Z,100067.00
2023-06-07T02:55:57.670Z,100067.61
2023-06-07T02:58:10.590Z,100066.21
2023-06-07T03:00:26.539Z,100068.51
2023-06-07T03:02:44.287Z,100075.33
2023-06-07T03:04:58.106Z,100075.69
2023-06-07T03:07:13.200Z,100074.20
2023-06-07T03:09:27.550Z,100077.36
2023-06-07T03:11:40.273Z,100078.95
2023-06-07T03:13:53.680Z,100078.86
2023-06-07T03:16:10.684Z,100079.91
2023-06-07T03:18:33.470Z,100079.73
2023-06-07T03:20:47.884Z,100080.64
2023-06-07T03:23:01.805Z,100082.38
2023-06-07T03:25:15.163Z,100081.08
2023-06-07T03:27:29.833Z,100085.30
2023-06-07T03:29:45.862Z,100084.30
2023-06-07T03:31:59.492Z,100085.09
2023-06-07T03:34:12.556Z,100082.33
2023-06-07T03:36:28.182Z,100080.55
2023-06-07T03:38:41.201Z,100080.14
2023-06-07T03:40:53.644Z,100078.60
2023-06-07T03:43:06.497Z,100081.73
2023-06-07T03:45:19.298Z,100085.07
2023-06-07T03:47:32.662Z,100086.12
2023-06-07T03:49:45.352Z,100086.44
2023-06-07T03:51:58.289Z,100090.18
2023-06-07T03:54:12.241Z,100094.77
2023-06-07T03:56:25.141Z,100096.04
2023-06-07T03:58:40.257Z,100098.73
2023-06-07T04:00:57.718Z,100102.42
2023-06-07T04:03:10.620Z,100100.26
2023-06-07T04:05:26.780Z,100101.75
2023-06-07T04:07:40.632Z,100104.43
2023-06-07T04:09:54.492Z,100107.02
2023-06-07T04:12:07.718Z,100104.30
2023-06-07T04:14:20.240Z,100108.56
2023-06-07T04:16:33.566Z,100106.36
2023-06-07T04:18:47.267Z,100107.04
2023-06-07T04:21:00.092Z,100109.38
2023-06-07T04:23:12.683Z,100110.23
2023-06-07T04:25:28.217Z,100112.79
2023-06-07T04:27:42.425Z,100117.34
2023-06-07T04:29:55.904Z,100114.03
2023-06-07T04:32:09.155Z,100114.95
2023-06-07T04:34:24.038Z,100116.13
2023-06-07T04:36:41.564Z,100119.78
2023-06-07T04:39:01.009Z,100120.80
2023-06-07T04:41:16.270Z,100124.55
2023-06-07T04:43:38.666Z,100131.92
2023-06-07T04:45:58.076Z,100132.23
2023-06-07T04:48:14.875Z,100133.73
2023-06-07T04:50:28.341Z,100137.81
2023-06-07T04:52:42.217Z,100142.61
2023-06-07T04:54:56.123Z,100146.27
2023-06-07T04:57:10.858Z,100154.23
2023-06-07T04:59:25.196Z,100155.20
2023-06-07T05:01:38.066Z,100157.17
2023-06-07T05:03:53.053Z,100157.15
2023-06-07T05:06:06.444Z,100160.92
2023-06-07T05:08:19.273Z,100160.29
2023-06-07T05:10:32.242Z,100162.96
2023-06-07T05:12:46.774Z,100164.67
2023-06-07T05:15:00.340Z,100163.39
2023-06-07T05:17:21.422Z,100164.15
2023-06-07T05:19:36.760Z,100168.16
2023-06-07T05:21:49.461Z,100170.55
2023-06-07T05:24:02.401Z,100180.16
2023-06-07T05:26:15.144Z,100176.40
2023-06-07T05:28:28.066Z,100182.63
2023-06-07T05:30:41.598Z,100184.86
2023-06-07T05:32:56.178Z,100187.99
2023-06-07T05:35:10.707Z,100186.73
2023-06-07T05:37:25.503Z,100189.15
2023-06-07T05:39:40.177Z,100189.27
2023-06-07T05:41:54.220Z,100193.49
2023-06-07T05:44:07.193Z,100193.52
2023-06-07T05:46:20.872Z,100196.52
2023-06-07T05:48:34.209Z,100204.98
2023-06-07T05:50:47.517Z,100207.83
2023-06-07T05:53:01.234Z,100212.21
2023-06-07T05:55:14.753Z,100212.34
2023-06-07T05:57:27.373Z,100214.20
2023-06-07T05:59:40.083Z,100216.19
2023-06-07T06:01:54.584Z,100217.17
2023-06-07T06:04:07.566Z,100221.77
2023-06-07T06:06:23.637Z,100222.31
2023-06-07T06:08:36.508Z,100219.92
2023-06-07T06:10:50.252Z,100219.27
2023-06-07T06:13:02.954Z,100224.48
2023-06-07T06:15:16.940Z,100232.15
2023-06-07T06:17:31.835Z,100238.42
2023-06-07T06:19:44.563Z,100240.00
2023-06-07T06:21:57.193Z,100245.38
2023-06-07T06:24:10.547Z,100243.69
2023-06-07T06:26:24.112Z,100239.48
2023-06-07T06:28:37.131Z,100239.09
2023-06-07T06:30:49.820Z,100240.10
2023-06-07T06:33:04.543Z,100237.42
2023-06-07T06:35:17.158Z,100238.33
2023-06-07T06:37:29.959Z,100239.77
2023-06-07T06:39:42.572Z,100240.52
2023-06-07T06:41:55.601Z,100239.02
2023-06-07T06:44:16.711Z,100241.88
2023-06-07T06:46:29.398Z,100242.20
2023-06-07T06:48:42.367Z,100240.58
2023-06-07T06:50:54.805Z,100247.70
2023-06-07T06:53:07.406Z,100244.96
2023-06-07T06:55:20.057Z,100248.57
2023-06-07T06:57:33.666Z,100251.42
2023-06-07T06:59:48.363Z,100253.88
2023-06-07T07:02:02.974Z,100256.42
2023-06-07T07:04:15.663Z,100255.33
2023-06-07T07:06:29.270Z,100250.44
2023-06-07T07:08:41.759Z,100252.44
2023-06-07T07:10:54.400Z,100252.63
2023-06-07T07:13:07.608Z,100253.50
2023-06-07T07:15:20.049Z,100254.30
2023-06-07T07:17:33.494Z,100251.52
2023-06-07T07:19:46.167Z,100254.39
2023-06-07T07:21:58.700Z,100256.48
2023-06-07T07:24:13.629Z,100265.64
2023-06-07T07:26:26.628Z,100270.79
2023-06-07T07:28:39.758Z,100266.13
2023-06-07T07:30:52.976Z,100263.23
2023-06-07T07:33:06.087Z,100259.27
2023-06-07T07:35:20.975Z,100262.67
2023-06-07T07:37:34.275Z,100273.16
2023-06-07T07:39:49.678Z,100278.48
2023-06-07T07:42:02.148Z,100281.38
2023-06-07T07:44:15.078Z,100280.02
2023-06-07T07:46:27.769Z,100278.27
2023-06-07T07:48:40.502Z,100278.54
2023-06-07T07:50:55.732Z,100277.36
2023-06-07T07:53:08.515Z,100280.73
2023-06-07T07:55:23.375Z,100286.77
2023-06-07T07:57:35.962Z,100293.73
2023-06-07T07:59:48.465Z,100295.15
2023-06-07T08:02:01.260Z,100293.27
2023-06-07T08:04:13.781Z,100301.98
2023-06-07T08:06:29.734Z,100301.22
2023-06-07T08:08:42.488Z,100297.79
2023-06-07T08:10:55.342Z,100300.48
2023-06-07T08:13:07.844Z,100299.97
2023-06-07T08:15:21.087Z,100296.91
2023-06-07T08:17:34.074Z,100295.86
2023-06-07T08:19:46.650Z,100296.83
2023-06-07T08:22:00.087Z,100299.98
2023-06-07T08:24:13.776Z,100311.70
2023-06-07T08:26:26.693Z,100314.27
2023-06-07T08:28:39.644Z,100313.10
2023-06-07T08:30:52.309Z,100309.80
2023-06-07T08:33:05.092Z,100304.59
2023-06-07T08:35:17.913Z,100305.92
2023-06-07T08:37:30.521Z,100309.00
2023-06-07T08:39:43.492Z,100312.36
2023-06-07T08:41:56.355Z,100316.52
2023-06-07T08:44:12.828Z,100316.31
2023-06-07T08:46:27.511Z,100321.98
2023-06-07T08:48:41.804Z,100330.33
2023-06-07T08:50:57.588Z,100332.46
2023-06-07T08:53:16.962Z,100333.17
2023-06-07T08:55:29.868Z,100328.60
2023-06-07T08:57:42.675Z,100324.04
2023-06-07T08:59:55.466Z,100318.19
2023-06-07T09:02:10.213Z,100318.95
2023-06-07T09:04:22.802Z,100317.58
2023-06-07T09:06:36.629Z,100316.08
2023-06-07T09:08:49.860Z,100316.89
2023-06-07T09:11:02.611Z,100324.77
2023-06-07T09:13:16.367Z,100324.89
2023-06-07T09:15:29.760Z,100326.77
2023-06-07T09:18:01.314Z,100328.98
2023-06-07T09:20:25.675Z,100329.61
2023-06-07T09:22:39.768Z,100331.41
2023-06-07T09:24:52.617Z,100335.02
2023-06-07T09:27:06.805Z,100338.21
2023-06-07T09:29:21.613Z,100341.73
2023-06-07T09:31:38.627Z,100344.80
2023-06-07T09:33:51.481Z,100349.70
2023-06-07T09:36:17.354Z,100350.03
2023-06-07T09:38:35.377Z,100345.90
2023-06-07T09:41:02.960Z,100344.61
2023-06-07T09:43:16.487Z,100342.30
2023-06-07T09:45:30.375Z,100344.69
2023-06-07T09:47:43.817Z,100347.83
2023-06-07T09:50:09.263Z,100356.69
2023-06-07T09:52:22.027Z,100361.92
2023-06-07T09:54:44.281Z,100365.84
2023-06-07T09:56:59.049Z,100364.02
2023-06-07T09:59:16.604Z,100365.10
2023-06-07T10:02:09.355Z,100361.91
2023-06-07T10:04:34.236Z,100364.95
2023-06-07T10:06:50.024Z,100367.67
2023-06-07T10:09:07.820Z,100372.05
2023-06-07T10:11:33.116Z,100379.63
2023-06-07T10:13:57.107Z,100381.80
2023-06-07T10:16:33.135Z,100392.65
2023-06-07T10:18:47.373Z,100397.73
2023-06-07T10:21:22.911Z,100396.77
2023-06-07T10:23:54.988Z,100394.75
2023-06-07T10:26:24.070Z,100397.35
2023-06-07T10:28:54.974Z,100400.18
2023-06-07T10:31:22.491Z,100408.41
2023-06-07T10:33:36.215Z,100413.36
2023-06-07T10:36:10.153Z,100420.48
2023-06-07T10:38:23.396Z,100422.16
2023-06-07T10:40:47.392Z,100420.77
2023-06-07T10:43:11.411Z,100422.65
2023-06-07T10:45:37.038Z,100430.30
2023-06-07T10:47:51.582Z,100436.60
2023-06-07T10:50:04.860Z,100437.79
2023-06-07T10:52:38.929Z,100437.05
2023-06-07T10:54:55.465Z,100438.98
2023-06-07T10:57:13.181Z,100441.80
2023-06-07T10:59:37.297Z,100442.22
2023-06-07T11:01:51.410Z,100446.34
2023-06-07T11:04:08.965Z,100446.58
2023-06-07T11:06:22.007Z,100448.98
2023-06-07T11:08:39.086Z,100454.70
2023-06-07T11:11:00.764Z,100459.23
2023-06-07T11:13:53.628Z,100461.94
2023-06-07T11:16:42.961Z,100467.77
2023-06-07T11:19:11.357Z,100476.42
2023-06-07T11:21:30.414Z,100479.11
2023-06-07T11:24:18.117Z,100477.67
2023-06-07T11:26:43.811Z,100476.02
2023-06-07T11:29:07.858Z,100481.20
2023-06-07T11:31:24.167Z,100484.92
2023-06-07T11:33:47.316Z,100492.08
2023-06-07T11:36:06.186Z,100497.40
2023-06-07T11:38:22.707Z,100505.52
2023-06-07T11:40:56.183Z,100510.25
2023-06-07T11:43:14.222Z,100509.01
2023-06-07T11:45:27.538Z,100513.61
2023-06-07T11:47:40.429Z,100514.04
2023-06-07T11:50:02.650Z,100521.77
2023-06-07T11:52:27.787Z,100530.64
2023-06-07T11:54:53.130Z,100538.17
2023-06-07T11:57:08.403Z,100540.81
2023-06-07T11:59:24.034Z,100542.25
2023-06-07T12:02:00.481Z,100547.91
2023-06-07T12:04:13.821Z,100550.79
2023-06-07T12:06:28.868Z,100552.45
2023-06-07T12:09:01.936Z,100562.20
2023-06-07T12:11:15.317Z,100558.80
2023-06-07T12:13:33.572Z,100558.53
2023-06-07T12:15:59.911Z,100562.80
2023-06-07T12:18:27.640Z,100569.39
2023-06-07T12:20:43.793Z,100577.23
2023-06-07T12:22:56.908Z,100581.11
2023-06-07T12:25:24.992Z,100584.77
2023-06-07T12:27:51.543Z,100588.90
2023-06-07T12:30:15.399Z,100591.95
2023-06-07T12:32:31.869Z,100593.39
2023-06-07T12:35:08.558Z,100594.61
2023-06-07T12:37:24.577Z,100599.08
2023-06-07T12:39:47.329Z,100604.80
2023-06-07T12:42:06.786Z,100608.61
2023-06-07T12:44:19.690Z,100609.88
2023-06-07T12:46:53.075Z,100611.27
2023-06-07T12:49:06.342Z,100612.23
2023-06-07T12:51:18.911Z,100614.54
2023-06-07T12:53:52.083Z,100620.40
2023-06-07T12:56:16.377Z,100625.70
2023-06-07T12:58:49.289Z,100634.33
2023-06-07T13:01:02.501Z,100642.47
2023-06-07T13:03:15.641Z,100648.95
2023-06-07T13:05:28.529Z,100653.79
2023-06-07T13:07:44.516Z,100660.27
2023-06-07T13:10:08.635Z,100661.38
2023-06-07T13:12:22.641Z,100669.93
2023-06-07T13:14:55.364Z,100670.40
2023-06-07T13:17:11.918Z,100670.48
2023-06-07T13:19:24.894Z,100672.38
2023-06-07T13:21:38.918Z,100674.84
2023-06-07T13:23:55.302Z,100682.44
2023-06-07T13:26:11.304Z,100687.84
2023-06-07T13:28:34.120Z,100692.76
2023-06-07T13:30:50.378Z,100693.50
2023-06-07T13:33:06.456Z,100693.30
2023-06-07T13:35:33.658Z,100694.44
2023-06-07T13:37:48.972Z,100695.05
2023-06-07T13:40:01.971Z,100699.27
2023-06-07T13:42:26.406Z,100701.13
2023-06-07T13:44:43.256Z,100700.64
2023-06-07T13:47:06.151Z,100704.91
2023-06-07T13:49:23.828Z,100706.76
2023-06-07T13:51:57.355Z,100711.95
2023-06-07T13:54:29.967Z,100714.15
2023-06-07T13:57:03.353Z,100716.84
2023-06-07T13:59:19.567Z,100714.63
2023-06-07T14:01:35.925Z,100711.79
2023-06-07T14:04:02.701Z,100709.64
2023-06-07T14:06:29.163Z,100711.08
2023-06-07T14:09:02.267Z,100713.15
2023-06-07T14:11:16.585Z,100715.04
2023-06-07T14:13:39.669Z,100715.98
2023-06-07T14:16:12.500Z,100723.42
2023-06-07T14:18:29.282Z,100721.88
2023-06-07T14:20:45.324Z,100723.22
2023-06-07T14:22:58.305Z,100725.52
2023-06-07T14:25:16.824Z,100730.82
2023-06-07T14:27:48.683Z,100738.56
2023-06-07T14:30:01.553Z,100746.80
2023-06-07T14:32:16.363Z,100745.21
2023-06-07T14:34:28.898Z,100751.70
2023-06-07T14:36:52.914Z,100758.20
2023-06-07T14:39:05.904Z,100762.39
2023-06-07T14:41:21.513Z,100762.48
2023-06-07T14:43:55.845Z,100756.09
2023-06-07T14:46:12.016Z,100761.36
2023-06-07T14:48:28.337Z,100763.35
2023-06-07T14:50:44.712Z,100764.56
2023-06-07T14:52:58.674Z,100766.09
2023-06-07T14:55:12.703Z,100763.25
2023-06-07T14:57:26.088Z,100765.71
2023-06-07T14:59:39.766Z,100767.45
2023-06-07T15:01:54.020Z,100770.92
2023-06-07T15:04:10.744Z,100772.75
2023-06-07T15:06:40.106Z,100779.71
2023-06-07T15:09:04.348Z,100778.63
2023-06-07T15:11:29.169Z,100781.98
2023-06-07T15:14:02.598Z,100785.86
2023-06-07T15:16:15.726Z,100786.50
2023-06-07T15:18:29.195Z,100791.80
2023-06-07T15:21:02.472Z,100795.59
2023-06-07T15:23:16.056Z,100794.91
2023-06-07T15:25:49.410Z,100790.94
2023-06-07T15:28:12.689Z,100786.29
2023-06-07T15:30:46.132Z,100791.01
2023-06-07T15:33:12.903Z,100786.44
2023-06-07T15:35:29.399Z,100790.15
2023-06-07T15:37:52.109Z,100791.72
2023-06-07T15:40:16.997Z,100787.38
2023-06-07T15:42:50.252Z,100791.04
2023-06-07T15:45:23.740Z,100800.10
2023-06-07T15:47:59.744Z,100800.80
2023-06-07T15:50:33.512Z,100805.60
2023-06-07T15:52:56.590Z,100807.77
2023-06-07T15:55:14.779Z,100805.13
2023-06-07T15:57:31.083Z,100810.73
2023-06-07T16:00:04.608Z,100815.66
2023-06-07T16:02:38.229Z,100813.44
2023-06-07T16:05:00.958Z,100812.36
2023-06-07T16:07:13.836Z,100817.01
2023-06-07T16:09:29.183Z,100817.90
2023-06-07T16:12:03.600Z,100814.51
2023-06-07T16:14:36.550Z,100811.54
2023-06-07T16:16:53.085Z,100815.16
2023-06-07T16:19:15.879Z,100814.45
2023-06-07T16:21:28.712Z,100815.86
2023-06-07T16:23:41.592Z,100825.40
2023-06-07T16:25:56.343Z,100826.36
2023-06-07T16:28:09.314Z,100819.44
2023-06-07T16:30:22.674Z,100823.69
2023-06-07T16:32:56.910Z,100832.25
2023-06-07T16:35:20.536Z,100829.89
2023-06-07T16:37:42.791Z,100824.05
2023-06-07T16:39:55.666Z,100824.98
2023-06-07T16:42:08.717Z,100827.23
2023-06-07T16:44:23.176Z,100827.09
2023-06-07T16:46:39.174Z,100831.54
2023-06-07T16:49:12.233Z,100828.74
2023-06-07T16:51:24.942Z,100815.65
2023-06-07T16:53:47.818Z,100818.61
2023-06-07T16:56:01.112Z,100815.42
2023-06-07T16:58:14.686Z,100815.13
2023-06-07T17:00:28.749Z,100813.43
2023-06-07T17:02:47.256Z,100815.46
2023-06-07T17:05:22.572Z,100817.83
2023-06-07T17:07:58.844Z,100816.55
2023-06-07T17:10:13.030Z,100819.14
2023-06-07T17:12:25.739Z,100824.35
2023-06-07T17:14:58.931Z,100826.90
2023-06-07T17:17:11.830Z,100824.04
2023-06-07T17:19:24.604Z,100818.82
2023-06-07T17:21:57.440Z,100825.31
2023-06-07T17:24:30.341Z,100821.58
2023-06-07T17:26:43.220Z,100822.03
2023-06-07T17:28:59.429Z,100825.52
2023-06-07T17:31:12.155Z,100821.43
2023-06-07T17:33:41.682Z,100827.08
2023-06-07T17:36:14.983Z,100821.73
2023-06-07T17:38:27.942Z,100826.05
2023-06-07T17:40:40.768Z,100828.12
2023-06-07T17:42:53.632Z,100831.45
2023-06-07T17:45:10.649Z,100828.86
2023-06-07T17:47:25.523Z,100830.88
2023-06-07T17:49:38.646Z,100830.35
2023-06-07T17:51:58.419Z,100830.11
2023-06-07T17:54:24.365Z,100834.88
2023-06-07T17:56:57.120Z,100836.95
2023-06-07T17:59:10.023Z,100837.36
2023-06-07T18:01:25.002Z,100830.23
2023-06-07T18:03:39.284Z,100830.02
2023-06-07T18:06:04.077Z,100828.38
2023-06-07T18:08:28.354Z,100822.52
2023-06-07T18:10:41.163Z,100823.34
2023-06-07T18:12:53.809Z,100830.36
2023-06-07T18:15:13.023Z,100829.80
2023-06-07T18:17:29.861Z,100827.86
2023-06-07T18:19:43.762Z,100833.02
2023-06-07T18:21:59.092Z,100823.23
2023-06-07T18:24:12.655Z,100822.85
2023-06-07T18:26:34.386Z,100818.45
2023-06-07T18:28:46.972Z,100815.73
2023-06-07T18:31:03.377Z,100820.78
2023-06-07T18:33:38.114Z,100819.39
2023-06-07T18:36:01.570Z,100817.74
2023-06-07T18:38:17.623Z,100820.86
2023-06-07T18:40:31.033Z,100821.00
2023-06-07T18:42:43.724Z,100818.94
2023-06-07T18:44:56.765Z,100817.88
2023-06-07T18:47:19.731Z,100818.59
2023-06-07T18:49:43.184Z,100807.83
2023-06-07T18:51:59.458Z,100808.48
2023-06-07T18:54:11.948Z,100805.59
2023-06-07T18:56:29.021Z,100805.24
2023-06-07T18:58:41.821Z,100808.48
2023-06-07T19:00:59.602Z,100804.88
2023-06-07T19:03:21.846Z,100796.65
2023-06-07T19:05:34.787Z,100797.75
2023-06-07T19:08:08.396Z,100795.64
2023-06-07T19:10:41.255Z,100794.08
2023-06-07T19:12:54.431Z,100789.45
2023-06-07T19:15:27.714Z,100788.70
2023-06-07T19:17:40.817Z,100784.75
2023-06-07T19:19:54.015Z,100788.80
2023-06-07T19:22:09.344Z,100786.86
2023-06-07T19:24:22.254Z,100786.63
2023-06-07T19:26:35.169Z,100790.59
2023-06-07T19:29:00.022Z,100793.86
2023-06-07T19:31:13.036Z,100789.27
2023-06-07T19:33:28.515Z,100787.55
2023-06-07T19:35:43.419Z,100786.49
2023-06-07T19:38:16.538Z,100783.05
2023-06-07T19:40:49.461Z,100781.31
2023-06-07T19:43:04.002Z,100780.66
2023-06-07T19:45:20.518Z,100773.75
2023-06-07T19:47:33.562Z,100775.67
2023-06-07T19:49:56.829Z,100774.34
2023-06-07T19:52:16.340Z,100773.83
2023-06-07T19:54:40.722Z,100769.02
2023-06-07T19:56:56.775Z,100765.11
2023-06-07T19:59:10.325Z,100763.95
2023-06-07T20:01:23.270Z,100755.33
2023-06-07T20:03:43.448Z,100759.54
2023-06-07T20:06:16.246Z,100761.73
2023-06-07T20:08:39.562Z,100763.47
2023-06-07T20:10:55.832Z,100761.50
2023-06-07T20:13:15.258Z,100753.81
2023-06-07T20:15:34.200Z,100754.93
2023-06-07T20:17:50.250Z,100752.05
2023-06-07T20:20:07.095Z,100751.09
2023-06-07T20:22:20.680Z,100749.71
2023-06-07T20:24:36.466Z,100747.86
2023-06-07T20:26:49.619Z,100744.60
2023-06-07T20:29:03.724Z,100742.38
2023-06-07T20:31:16.399Z,100736.41
2023-06-07T20:33:39.861Z,100734.02
2023-06-07T20:36:03.541Z,100726.73
2023-06-07T20:38:29.402Z,100729.15
2023-06-07T20:40:45.683Z,100725.66
2023-06-07T20:42:59.049Z,100723.95
2023-06-07T20:45:16.937Z,100726.11
2023-06-07T20:47:45.013Z,100721.98
2023-06-07T20:50:18.300Z,100718.36
2023-06-07T20:52:51.297Z,100715.95
2023-06-07T20:55:14.565Z,100715.84
2023-06-07T20:57:28.033Z,100710.05
2023-06-07T20:59:47.105Z,100707.04
2023-06-07T21:02:02.940Z,100708.08
2023-06-07T21:04:24.873Z,100707.85
2023-06-07T21:06:40.832Z,100706.14
2023-06-07T21:08:57.055Z,100708.39
2023-06-07T21:11:10.991Z,100704.48
2023-06-07T21:13:23.646Z,100697.92
2023-06-07T21:15:36.558Z,100692.98
2023-06-07T21:17:49.382Z,100689.30
2023-06-07T21:20:02.558Z,100687.02
2023-06-07T21:22:15.340Z,100688.46
2023-06-07T21:24:28.044Z,100684.19
2023-06-07T21:27:01.005Z,100678.54
2023-06-07T21:29:17.155Z,100675.54
2023-06-07T21:31:49.940Z,100675.39
2023-06-07T21:34:06.642Z,100670.72
2023-06-07T21:36:40.824Z,100672.23
2023-06-07T21:39:14.206Z,100666.53
2023-06-07T21:41:38.205Z,100664.73
2023-06-07T21:44:00.654Z,100662.56
2023-06-07T21:46:13.676Z,100665.75
2023-06-07T21:48:38.156Z,100661.42
2023-06-07T21:50:54.465Z,100653.70
2023-06-07T21:53:11.082Z,100651.68
2023-06-07T21:55:44.048Z,100651.54
2023-06-07T21:58:00.324Z,100654.81
2023-06-07T22:00:18.673Z,100651.23
2023-06-07T22:02:51.426Z,100639.34
2023-06-07T22:05:04.212Z,100637.25
2023-06-07T22:07:17.109Z,100640.63
2023-06-07T22:09:30.141Z,100636.45
2023-06-07T22:12:05.374Z,100632.23
2023-06-07T22:14:18.905Z,100630.75
2023-06-07T22:16:36.243Z,100630.50
2023-06-07T22:19:01.854Z,100629.78
2023-06-07T22:21:15.279Z,100627.45
2023-06-07T22:23:48.477Z,100624.30
2023-06-07T22:26:21.617Z,100621.02
2023-06-07T22:28:34.796Z,100620.97
2023-06-07T22:30:57.751Z,100620.79
2023-06-07T22:33:11.720Z,100615.67
2023-06-07T22:35:25.689Z,100608.18
2023-06-07T22:37:51.223Z,100608.52
2023-06-07T22:40:17.230Z,100603.63
2023-06-07T22:42:40.995Z,100598.63
2023-06-07T22:45:05.189Z,100596.81
2023-06-07T22:47:20.242Z,100591.69
2023-06-07T22:49:45.075Z,100587.27
2023-06-07T22:52:08.438Z,100580.00
2023-06-07T22:54:21.254Z,100578.00
2023-06-07T22:56:54.006Z,100573.28
2023-06-07T22:59:10.336Z,100574.27
2023-06-07T23:01:33.836Z,100573.38
2023-06-07T23:03:51.144Z,100570.27
2023-06-07T23:06:09.418Z,100563.17
2023-06-07T23:08:23.232Z,100560.09
2023-06-07T23:10:45.470Z,100561.30
2023-06-07T23:13:17.452Z,100565.85
2023-06-07T23:15:34.487Z,100562.47
2023-06-07T23:17:51.529Z,100570.16
2023-06-07T23:20:13.146Z,100566.17
2023-06-07T23:22:36.224Z,100564.81
2023-06-07T23:25:09.547Z,100560.70
2023-06-07T23:27:22.538Z,100553.42
2023-06-07T23:29:38.497Z,100551.13
2023-06-07T23:32:12.505Z,100549.96
2023-06-07T23:34:26.164Z,100555.98
2023-06-07T23:36:39.905Z,100553.44
2023-06-07T23:38:53.182Z,100549.67
2023-06-07T23:41:06.361Z,100541.70
2023-06-07T23:43:39.507Z,100540.47
2023-06-07T23:46:02.045Z,100538.72
2023-06-07T23:48:35.038Z,100533.55
2023-06-07T23:50:52.163Z,100530.16
2023-06-07T23:53:06.093Z,100524.85
2023-06-07T23:55:30.758Z,100526.22
2023-06-07T23:57:43.799Z,100522.59
